sensor_id;sensor_type;location;lat;lon;timestamp;P1;durP1;ratioP1;P2;durP2;ratioP2
70455;SDS011;57916;51.996;5.180;2022-09-01T00:01:45;2.53;;;1.55;;
70455;SDS011;57916;51.996;5.180;2022-09-01T00:04:15;1.67;;;1.57;;
70455;SDS011;57916;51.996;5.180;2022-09-01T00:06:44;5.72;;;1.73;;
70455;SDS011;57916;51.996;5.180;2022-09-01T00:09:14;3.22;;;1.60;;
70455;SDS011;57916;51.996;5.180;2022-09-01T00:11:45;3.38;;;1.60;;
70455;SDS011;57916;51.996;5.180;2022-09-01T00:14:16;2.38;;;1.60;;
70455;SDS011;57916;51.996;5.180;2022-09-01T00:16:59;3.67;;;1.53;;
70455;SDS011;57916;51.996;5.180;2022-09-01T00:19:29;4.90;;;1.90;;
70455;SDS011;57916;51.996;5.180;2022-09-01T00:21:58;1.60;;;1.60;;
70455;SDS011;57916;51.996;5.180;2022-09-01T00:24:25;3.17;;;1.67;;
70455;SDS011;57916;51.996;5.180;2022-09-01T00:26:53;1.88;;;1.40;;
70455;SDS011;57916;51.996;5.180;2022-09-01T00:29:22;2.88;;;1.75;;
70455;SDS011;57916;51.996;5.180;2022-09-01T00:31:49;2.63;;;1.70;;
70455;SDS011;57916;51.996;5.180;2022-09-01T00:34:17;4.50;;;1.70;;
70455;SDS011;57916;51.996;5.180;2022-09-01T00:36:44;1.60;;;1.55;;
70455;SDS011;57916;51.996;5.180;2022-09-01T00:39:12;3.10;;;1.77;;
70455;SDS011;57916;51.996;5.180;2022-09-01T00:41:39;3.17;;;1.80;;
70455;SDS011;57916;51.996;5.180;2022-09-01T00:44:10;5.00;;;2.03;;
70455;SDS011;57916;51.996;5.180;2022-09-01T00:46:40;2.53;;;1.67;;
70455;SDS011;57916;51.996;5.180;2022-09-01T00:49:22;1.75;;;1.48;;
70455;SDS011;57916;51.996;5.180;2022-09-01T00:52:04;1.80;;;1.70;;
70455;SDS011;57916;51.996;5.180;2022-09-01T00:54:40;2.40;;;1.70;;
70455;SDS011;57916;51.996;5.180;2022-09-01T00:57:11;2.10;;;1.90;;
70455;SDS011;57916;51.996;5.180;2022-09-01T00:59:41;2.80;;;1.70;;
70455;SDS011;57916;51.996;5.180;2022-09-01T01:02:11;2.65;;;1.88;;
70455;SDS011;57916;51.996;5.180;2022-09-01T01:04:39;4.10;;;1.90;;
70455;SDS011;57916;51.996;5.180;2022-09-01T01:07:09;2.97;;;1.70;;
70455;SDS011;57916;51.996;5.180;2022-09-01T01:09:39;2.90;;;1.80;;
70455;SDS011;57916;51.996;5.180;2022-09-01T01:12:08;2.00;;;1.70;;
70455;SDS011;57916;51.996;5.180;2022-09-01T01:14:44;3.60;;;1.70;;
70455;SDS011;57916;51.996;5.180;2022-09-01T01:17:20;3.17;;;2.17;;
70455;SDS011;57916;51.996;5.180;2022-09-01T01:19:49;2.97;;;2.00;;
70455;SDS011;57916;51.996;5.180;2022-09-01T01:22:40;2.08;;;1.80;;
70455;SDS011;57916;51.996;5.180;2022-09-01T01:28:16;5.28;;;2.00;;
70455;SDS011;57916;51.996;5.180;2022-09-01T01:30:51;4.15;;;1.80;;
70455;SDS011;57916;51.996;5.180;2022-09-01T01:33:49;4.50;;;1.83;;
70455;SDS011;57916;51.996;5.180;2022-09-01T01:36:17;4.88;;;1.88;;
70455;SDS011;57916;51.996;5.180;2022-09-01T01:39:02;2.05;;;1.90;;
70455;SDS011;57916;51.996;5.180;2022-09-01T01:41:38;6.28;;;2.10;;
70455;SDS011;57916;51.996;5.180;2022-09-01T01:44:08;4.53;;;1.90;;
70455;SDS011;57916;51.996;5.180;2022-09-01T01:46:40;3.05;;;2.20;;
70455;SDS011;57916;51.996;5.180;2022-09-01T01:49:09;2.08;;;1.92;;
70455;SDS011;57916;51.996;5.180;2022-09-01T01:51:39;3.20;;;2.08;;
70455;SDS011;57916;51.996;5.180;2022-09-01T01:54:07;2.20;;;2.00;;
70455;SDS011;57916;51.996;5.180;2022-09-01T01:56:34;3.65;;;2.10;;
70455;SDS011;57916;51.996;5.180;2022-09-01T01:59:04;2.15;;;1.92;;
70455;SDS011;57916;51.996;5.180;2022-09-01T02:01:34;3.40;;;2.33;;
70455;SDS011;57916;51.996;5.180;2022-09-01T02:04:01;2.25;;;1.90;;
70455;SDS011;57916;51.996;5.180;2022-09-01T02:06:32;2.78;;;2.10;;
70455;SDS011;57916;51.996;5.180;2022-09-01T02:09:01;4.75;;;2.30;;
70455;SDS011;57916;51.996;5.180;2022-09-01T02:11:29;2.47;;;2.03;;
70455;SDS011;57916;51.996;5.180;2022-09-01T02:14:04;4.20;;;2.10;;
70455;SDS011;57916;51.996;5.180;2022-09-01T02:16:33;3.70;;;2.30;;
70455;SDS011;57916;51.996;5.180;2022-09-01T02:19:04;2.92;;;2.13;;
70455;SDS011;57916;51.996;5.180;2022-09-01T02:21:33;2.83;;;2.08;;
70455;SDS011;57916;51.996;5.180;2022-09-01T02:24:04;3.55;;;2.20;;
70455;SDS011;57916;51.996;5.180;2022-09-01T02:26:35;2.63;;;2.20;;
70455;SDS011;57916;51.996;5.180;2022-09-01T02:29:08;2.92;;;2.58;;
70455;SDS011;57916;51.996;5.180;2022-09-01T02:31:44;2.50;;;2.22;;
70455;SDS011;57916;51.996;5.180;2022-09-01T02:34:13;2.95;;;2.20;;
70455;SDS011;57916;51.996;5.180;2022-09-01T02:36:43;2.88;;;2.40;;
70455;SDS011;57916;51.996;5.180;2022-09-01T02:39:20;5.47;;;2.60;;
70455;SDS011;57916;51.996;5.180;2022-09-01T02:41:50;2.28;;;2.10;;
70455;SDS011;57916;51.996;5.180;2022-09-01T02:44:22;4.22;;;2.30;;
70455;SDS011;57916;51.996;5.180;2022-09-01T02:46:49;2.57;;;2.37;;
70455;SDS011;57916;51.996;5.180;2022-09-01T02:49:20;2.42;;;2.22;;
70455;SDS011;57916;51.996;5.180;2022-09-01T02:51:51;2.85;;;2.40;;
70455;SDS011;57916;51.996;5.180;2022-09-01T02:54:20;2.72;;;2.22;;
70455;SDS011;57916;51.996;5.180;2022-09-01T02:56:48;2.40;;;2.30;;
70455;SDS011;57916;51.996;5.180;2022-09-01T02:59:16;4.18;;;2.50;;
70455;SDS011;57916;51.996;5.180;2022-09-01T03:01:48;2.58;;;2.40;;
70455;SDS011;57916;51.996;5.180;2022-09-01T03:04:17;3.30;;;2.28;;
70455;SDS011;57916;51.996;5.180;2022-09-01T03:06:46;3.08;;;2.30;;
70455;SDS011;57916;51.996;5.180;2022-09-01T03:09:14;2.72;;;2.45;;
70455;SDS011;57916;51.996;5.180;2022-09-01T03:11:44;4.00;;;2.30;;
70455;SDS011;57916;51.996;5.180;2022-09-01T03:14:14;3.13;;;2.78;;
70455;SDS011;57916;51.996;5.180;2022-09-01T03:16:42;2.60;;;2.40;;
70455;SDS011;57916;51.996;5.180;2022-09-01T03:19:09;2.70;;;2.50;;
70455;SDS011;57916;51.996;5.180;2022-09-01T03:21:39;4.55;;;2.60;;
70455;SDS011;57916;51.996;5.180;2022-09-01T03:24:09;2.70;;;2.50;;
70455;SDS011;57916;51.996;5.180;2022-09-01T03:26:40;2.60;;;2.40;;
70455;SDS011;57916;51.996;5.180;2022-09-01T03:29:08;2.63;;;2.33;;
70455;SDS011;57916;51.996;5.180;2022-09-01T03:31:36;2.65;;;2.47;;
70455;SDS011;57916;51.996;5.180;2022-09-01T03:34:03;2.80;;;2.70;;
70455;SDS011;57916;51.996;5.180;2022-09-01T03:36:35;3.03;;;2.70;;
70455;SDS011;57916;51.996;5.180;2022-09-01T03:39:02;6.18;;;2.78;;
70455;SDS011;57916;51.996;5.180;2022-09-01T03:41:30;2.55;;;2.40;;
70455;SDS011;57916;51.996;5.180;2022-09-01T03:43:58;6.55;;;2.65;;
70455;SDS011;57916;51.996;5.180;2022-09-01T03:46:28;2.63;;;2.45;;
70455;SDS011;57916;51.996;5.180;2022-09-01T03:49:02;4.38;;;2.50;;
70455;SDS011;57916;51.996;5.180;2022-09-01T03:51:32;2.70;;;2.50;;
70455;SDS011;57916;51.996;5.180;2022-09-01T03:54:00;3.20;;;2.60;;
70455;SDS011;57916;51.996;5.180;2022-09-01T03:56:27;2.80;;;2.60;;
70455;SDS011;57916;51.996;5.180;2022-09-01T03:58:55;4.10;;;2.65;;
70455;SDS011;57916;51.996;5.180;2022-09-01T04:01:25;7.43;;;2.88;;
70455;SDS011;57916;51.996;5.180;2022-09-01T04:03:55;4.72;;;2.80;;
70455;SDS011;57916;51.996;5.180;2022-09-01T04:06:28;5.53;;;2.88;;
70455;SDS011;57916;51.996;5.180;2022-09-01T04:08:56;3.33;;;3.03;;
70455;SDS011;57916;51.996;5.180;2022-09-01T04:11:30;3.45;;;2.70;;
70455;SDS011;57916;51.996;5.180;2022-09-01T04:13:59;5.70;;;3.10;;
70455;SDS011;57916;51.996;5.180;2022-09-01T04:16:28;3.45;;;2.50;;
70455;SDS011;57916;51.996;5.180;2022-09-01T04:19:16;4.10;;;2.67;;
70455;SDS011;57916;51.996;5.180;2022-09-01T04:21:53;3.20;;;2.50;;
70455;SDS011;57916;51.996;5.180;2022-09-01T04:24:23;2.95;;;2.63;;
70455;SDS011;57916;51.996;5.180;2022-09-01T04:26:54;4.63;;;2.70;;
70455;SDS011;57916;51.996;5.180;2022-09-01T04:29:24;3.38;;;2.53;;
70455;SDS011;57916;51.996;5.180;2022-09-01T04:31:56;3.00;;;2.80;;
70455;SDS011;57916;51.996;5.180;2022-09-01T04:34:30;3.88;;;2.70;;
70455;SDS011;57916;51.996;5.180;2022-09-01T04:37:11;6.65;;;2.90;;
70455;SDS011;57916;51.996;5.180;2022-09-01T04:39:41;3.17;;;2.78;;
70455;SDS011;57916;51.996;5.180;2022-09-01T04:42:22;3.00;;;2.80;;
70455;SDS011;57916;51.996;5.180;2022-09-01T04:44:52;4.07;;;2.60;;
70455;SDS011;57916;51.996;5.180;2022-09-01T04:47:23;3.03;;;2.65;;
70455;SDS011;57916;51.996;5.180;2022-09-01T04:50:04;3.63;;;2.95;;
70455;SDS011;57916;51.996;5.180;2022-09-01T04:52:43;3.47;;;2.90;;
70455;SDS011;57916;51.996;5.180;2022-09-01T04:55:28;4.03;;;2.80;;
70455;SDS011;57916;51.996;5.180;2022-09-01T04:57:56;4.43;;;2.80;;
70455;SDS011;57916;51.996;5.180;2022-09-01T05:00:25;3.20;;;2.90;;
70455;SDS011;57916;51.996;5.180;2022-09-01T05:02:58;4.90;;;2.67;;
70455;SDS011;57916;51.996;5.180;2022-09-01T05:06:11;3.80;;;2.58;;
70455;SDS011;57916;51.996;5.180;2022-09-01T05:08:48;4.43;;;2.90;;
70455;SDS011;57916;51.996;5.180;2022-09-01T05:11:31;3.83;;;2.80;;
70455;SDS011;57916;51.996;5.180;2022-09-01T05:14:05;2.80;;;2.60;;
70455;SDS011;57916;51.996;5.180;2022-09-01T05:16:34;3.27;;;2.60;;
70455;SDS011;57916;51.996;5.180;2022-09-01T05:19:05;3.35;;;2.50;;
70455;SDS011;57916;51.996;5.180;2022-09-01T05:21:41;3.10;;;2.90;;
70455;SDS011;57916;51.996;5.180;2022-09-01T05:24:13;2.80;;;2.60;;
70455;SDS011;57916;51.996;5.180;2022-09-01T05:26:43;6.00;;;2.78;;
70455;SDS011;57916;51.996;5.180;2022-09-01T05:29:13;3.50;;;2.80;;
70455;SDS011;57916;51.996;5.180;2022-09-01T05:31:45;2.85;;;2.70;;
70455;SDS011;57916;51.996;5.180;2022-09-01T05:34:16;2.78;;;2.58;;
70455;SDS011;57916;51.996;5.180;2022-09-01T05:36:53;3.03;;;2.80;;
70455;SDS011;57916;51.996;5.180;2022-09-01T05:39:23;4.55;;;2.67;;
70455;SDS011;57916;51.996;5.180;2022-09-01T05:41:52;5.43;;;3.03;;
70455;SDS011;57916;51.996;5.180;2022-09-01T05:44:20;3.70;;;2.50;;
70455;SDS011;57916;51.996;5.180;2022-09-01T05:46:49;4.78;;;2.50;;
70455;SDS011;57916;51.996;5.180;2022-09-01T05:49:17;2.30;;;2.20;;
70455;SDS011;57916;51.996;5.180;2022-09-01T05:51:48;3.25;;;2.33;;
70455;SDS011;57916;51.996;5.180;2022-09-01T05:54:20;2.55;;;2.35;;
70455;SDS011;57916;51.996;5.180;2022-09-01T05:56:56;4.05;;;2.50;;
70455;SDS011;57916;51.996;5.180;2022-09-01T05:59:43;5.53;;;2.65;;
70455;SDS011;57916;51.996;5.180;2022-09-01T06:02:15;4.13;;;2.50;;
70455;SDS011;57916;51.996;5.180;2022-09-01T06:04:43;3.17;;;2.30;;
70455;SDS011;57916;51.996;5.180;2022-09-01T06:07:19;4.72;;;2.47;;
70455;SDS011;57916;51.996;5.180;2022-09-01T06:09:51;2.55;;;2.28;;
70455;SDS011;57916;51.996;5.180;2022-09-01T06:12:21;2.58;;;2.20;;
70455;SDS011;57916;51.996;5.180;2022-09-01T06:14:54;3.30;;;2.30;;
70455;SDS011;57916;51.996;5.180;2022-09-01T06:17:24;6.78;;;2.22;;
70455;SDS011;57916;51.996;5.180;2022-09-01T06:19:56;3.20;;;2.17;;
70455;SDS011;57916;51.996;5.180;2022-09-01T06:22:25;2.85;;;2.03;;
70455;SDS011;57916;51.996;5.180;2022-09-01T06:24:54;3.45;;;2.05;;
70455;SDS011;57916;51.996;5.180;2022-09-01T06:27:31;3.73;;;2.10;;
70455;SDS011;57916;51.996;5.180;2022-09-01T06:29:58;3.23;;;1.90;;
70455;SDS011;57916;51.996;5.180;2022-09-01T06:32:25;4.70;;;2.10;;
70455;SDS011;57916;51.996;5.180;2022-09-01T06:34:53;3.53;;;2.10;;
70455;SDS011;57916;51.996;5.180;2022-09-01T06:37:23;5.30;;;2.20;;
70455;SDS011;57916;51.996;5.180;2022-09-01T06:39:54;5.15;;;2.20;;
70455;SDS011;57916;51.996;5.180;2022-09-01T06:42:23;3.28;;;2.00;;
70455;SDS011;57916;51.996;5.180;2022-09-01T06:44:55;3.10;;;1.90;;
70455;SDS011;57916;51.996;5.180;2022-09-01T06:47:24;1.90;;;1.80;;
70455;SDS011;57916;51.996;5.180;2022-09-01T06:49:54;6.68;;;2.00;;
70455;SDS011;57916;51.996;5.180;2022-09-01T06:52:25;2.15;;;1.90;;
70455;SDS011;57916;51.996;5.180;2022-09-01T06:54:53;5.32;;;2.15;;
70455;SDS011;57916;51.996;5.180;2022-09-01T06:57:23;3.70;;;1.90;;
70455;SDS011;57916;51.996;5.180;2022-09-01T07:00:14;3.00;;;1.90;;
70455;SDS011;57916;51.996;5.180;2022-09-01T07:02:47;2.97;;;1.80;;
70455;SDS011;57916;51.996;5.180;2022-09-01T07:05:39;2.55;;;1.90;;
70455;SDS011;57916;51.996;5.180;2022-09-01T07:08:47;2.05;;;1.80;;
70455;SDS011;57916;51.996;5.180;2022-09-01T07:11:43;3.40;;;1.80;;
70455;SDS011;57916;51.996;5.180;2022-09-01T07:14:30;2.60;;;1.90;;
70455;SDS011;57916;51.996;5.180;2022-09-01T07:16:58;2.10;;;2.00;;
70455;SDS011;57916;51.996;5.180;2022-09-01T07:19:45;4.07;;;2.35;;
70455;SDS011;57916;51.996;5.180;2022-09-01T07:22:33;5.27;;;1.80;;
70455;SDS011;57916;51.996;5.180;2022-09-01T07:25:21;7.33;;;1.90;;
70455;SDS011;57916;51.996;5.180;2022-09-01T07:27:55;2.13;;;1.80;;
70455;SDS011;57916;51.996;5.180;2022-09-01T07:30:26;2.70;;;1.80;;
70455;SDS011;57916;51.996;5.180;2022-09-01T07:32:54;2.20;;;1.70;;
70455;SDS011;57916;51.996;5.180;2022-09-01T07:35:23;3.67;;;1.60;;
70455;SDS011;57916;51.996;5.180;2022-09-01T07:37:50;1.90;;;1.50;;
70455;SDS011;57916;51.996;5.180;2022-09-01T07:40:39;6.82;;;1.70;;
70455;SDS011;57916;51.996;5.180;2022-09-01T07:43:45;8.15;;;1.80;;
70455;SDS011;57916;51.996;5.180;2022-09-01T07:46:36;7.63;;;1.50;;
70455;SDS011;57916;51.996;5.180;2022-09-01T07:49:08;6.63;;;1.55;;
70455;SDS011;57916;51.996;5.180;2022-09-01T07:51:55;8.48;;;2.22;;
70455;SDS011;57916;51.996;5.180;2022-09-01T07:54:25;3.67;;;1.48;;
70455;SDS011;57916;51.996;5.180;2022-09-01T07:56:53;3.55;;;1.73;;
70455;SDS011;57916;51.996;5.180;2022-09-01T07:59:21;1.55;;;1.45;;
70455;SDS011;57916;51.996;5.180;2022-09-01T08:01:55;5.50;;;1.50;;
70455;SDS011;57916;51.996;5.180;2022-09-01T08:04:22;1.60;;;1.33;;
70455;SDS011;57916;51.996;5.180;2022-09-01T08:06:50;7.67;;;1.60;;
70455;SDS011;57916;51.996;5.180;2022-09-01T08:09:17;3.30;;;1.50;;
70455;SDS011;57916;51.996;5.180;2022-09-01T08:12:03;1.85;;;1.40;;
70455;SDS011;57916;51.996;5.180;2022-09-01T08:14:37;1.55;;;1.45;;
70455;SDS011;57916;51.996;5.180;2022-09-01T08:17:05;6.13;;;1.52;;
70455;SDS011;57916;51.996;5.180;2022-09-01T08:19:53;6.68;;;1.50;;
70455;SDS011;57916;51.996;5.180;2022-09-01T08:22:41;4.30;;;1.45;;
70455;SDS011;57916;51.996;5.180;2022-09-01T08:25:28;4.95;;;1.38;;
70455;SDS011;57916;51.996;5.180;2022-09-01T08:27:57;3.15;;;1.40;;
70455;SDS011;57916;51.996;5.180;2022-09-01T08:30:26;2.22;;;1.30;;
70455;SDS011;57916;51.996;5.180;2022-09-01T08:32:53;6.97;;;1.70;;
70455;SDS011;57916;51.996;5.180;2022-09-01T08:35:21;4.93;;;1.53;;
70455;SDS011;57916;51.996;5.180;2022-09-01T08:37:48;4.38;;;1.50;;
70455;SDS011;57916;51.996;5.180;2022-09-01T08:40:17;2.50;;;1.40;;
70455;SDS011;57916;51.996;5.180;2022-09-01T08:42:56;2.67;;;1.40;;
70455;SDS011;57916;51.996;5.180;2022-09-01T08:46:03;2.30;;;1.42;;
70455;SDS011;57916;51.996;5.180;2022-09-01T08:48:47;3.90;;;1.38;;
70455;SDS011;57916;51.996;5.180;2022-09-01T08:51:59;1.63;;;1.52;;
70455;SDS011;57916;51.996;5.180;2022-09-01T08:54:43;4.18;;;1.42;;
70455;SDS011;57916;51.996;5.180;2022-09-01T08:57:25;2.87;;;1.30;;
70455;SDS011;57916;51.996;5.180;2022-09-01T09:00:17;1.65;;;1.20;;
70455;SDS011;57916;51.996;5.180;2022-09-01T09:08:43;1.95;;;1.20;;
70455;SDS011;57916;51.996;5.180;2022-09-01T09:16:36;3.78;;;1.40;;
70455;SDS011;57916;51.996;5.180;2022-09-01T09:19:21;1.40;;;1.30;;
70455;SDS011;57916;51.996;5.180;2022-09-01T09:21:55;4.25;;;1.58;;
70455;SDS011;57916;51.996;5.180;2022-09-01T09:27:23;1.15;;;1.10;;
70455;SDS011;57916;51.996;5.180;2022-09-01T09:32:24;7.80;;;1.38;;
70455;SDS011;57916;51.996;5.180;2022-09-01T09:35:33;6.47;;;1.30;;
70455;SDS011;57916;51.996;5.180;2022-09-01T09:41:04;2.00;;;1.20;;
70455;SDS011;57916;51.996;5.180;2022-09-01T09:43:53;2.95;;;1.30;;
70455;SDS011;57916;51.996;5.180;2022-09-01T09:55:19;3.05;;;1.20;;
70455;SDS011;57916;51.996;5.180;2022-09-01T09:57:47;5.65;;;1.30;;
70455;SDS011;57916;51.996;5.180;2022-09-01T10:03:00;1.55;;;1.20;;
70455;SDS011;57916;51.996;5.180;2022-09-01T10:10:59;4.10;;;1.20;;
70455;SDS011;57916;51.996;5.180;2022-09-01T10:13:27;2.80;;;1.10;;
70455;SDS011;57916;51.996;5.180;2022-09-01T10:16:07;2.65;;;1.15;;
70455;SDS011;57916;51.996;5.180;2022-09-01T10:18:47;3.72;;;1.30;;
70455;SDS011;57916;51.996;5.180;2022-09-01T10:21:20;6.40;;;1.30;;
70455;SDS011;57916;51.996;5.180;2022-09-01T10:23:49;2.80;;;1.38;;
70455;SDS011;57916;51.996;5.180;2022-09-01T10:26:17;3.15;;;1.20;;
70455;SDS011;57916;51.996;5.180;2022-09-01T10:29:04;2.50;;;1.20;;
70455;SDS011;57916;51.996;5.180;2022-09-01T10:31:31;4.70;;;1.10;;
70455;SDS011;57916;51.996;5.180;2022-09-01T10:34:01;2.90;;;1.13;;
70455;SDS011;57916;51.996;5.180;2022-09-01T10:36:31;2.20;;;1.00;;
70455;SDS011;57916;51.996;5.180;2022-09-01T10:39:00;2.45;;;1.10;;
70455;SDS011;57916;51.996;5.180;2022-09-01T10:44:27;1.63;;;1.00;;
70455;SDS011;57916;51.996;5.180;2022-09-01T10:47:00;1.75;;;1.10;;
70455;SDS011;57916;51.996;5.180;2022-09-01T10:52:51;5.45;;;1.27;;
70455;SDS011;57916;51.996;5.180;2022-09-01T10:55:16;1.35;;;1.23;;
70455;SDS011;57916;51.996;5.180;2022-09-01T11:01:15;3.50;;;1.00;;
70455;SDS011;57916;51.996;5.180;2022-09-01T11:04:03;1.50;;;1.10;;
70455;SDS011;57916;51.996;5.180;2022-09-01T11:06:31;1.05;;;1.05;;
70455;SDS011;57916;51.996;5.180;2022-09-01T11:09:00;2.50;;;1.10;;
70455;SDS011;57916;51.996;5.180;2022-09-01T11:14:01;2.20;;;1.00;;
70455;SDS011;57916;51.996;5.180;2022-09-01T11:16:32;2.03;;;1.15;;
70455;SDS011;57916;51.996;5.180;2022-09-01T11:25:05;2.58;;;1.17;;
70455;SDS011;57916;51.996;5.180;2022-09-01T11:30:15;1.48;;;1.00;;
70455;SDS011;57916;51.996;5.180;2022-09-01T11:32:42;1.10;;;1.10;;
70455;SDS011;57916;51.996;5.180;2022-09-01T11:35:17;2.10;;;1.20;;
70455;SDS011;57916;51.996;5.180;2022-09-01T11:37:47;1.40;;;1.10;;
70455;SDS011;57916;51.996;5.180;2022-09-01T11:40:25;1.00;;;1.00;;
70455;SDS011;57916;51.996;5.180;2022-09-01T11:42:58;2.67;;;1.02;;
70455;SDS011;57916;51.996;5.180;2022-09-01T11:45:35;2.70;;;1.10;;
70455;SDS011;57916;51.996;5.180;2022-09-01T11:48:16;1.50;;;1.10;;
70455;SDS011;57916;51.996;5.180;2022-09-01T11:50:43;4.20;;;1.02;;
70455;SDS011;57916;51.996;5.180;2022-09-01T11:53:14;3.17;;;1.15;;
70455;SDS011;57916;51.996;5.180;2022-09-01T11:55:48;2.10;;;1.00;;
70455;SDS011;57916;51.996;5.180;2022-09-01T12:00:53;1.00;;;1.00;;
70455;SDS011;57916;51.996;5.180;2022-09-01T12:03:26;1.83;;;1.00;;
70455;SDS011;57916;51.996;5.180;2022-09-01T12:05:58;1.00;;;1.00;;
70455;SDS011;57916;51.996;5.180;2022-09-01T12:08:35;1.30;;;1.08;;
70455;SDS011;57916;51.996;5.180;2022-09-01T12:11:09;1.33;;;0.90;;
70455;SDS011;57916;51.996;5.180;2022-09-01T12:13:38;2.33;;;1.20;;
70455;SDS011;57916;51.996;5.180;2022-09-01T12:16:07;1.52;;;1.00;;
70455;SDS011;57916;51.996;5.180;2022-09-01T12:18:45;1.38;;;1.10;;
70455;SDS011;57916;51.996;5.180;2022-09-01T12:21:18;2.45;;;0.90;;
70455;SDS011;57916;51.996;5.180;2022-09-01T12:23:48;0.90;;;0.90;;
70455;SDS011;57916;51.996;5.180;2022-09-01T12:26:18;3.15;;;1.00;;
70455;SDS011;57916;51.996;5.180;2022-09-01T12:28:50;2.40;;;0.95;;
70455;SDS011;57916;51.996;5.180;2022-09-01T12:31:19;7.60;;;1.00;;
70455;SDS011;57916;51.996;5.180;2022-09-01T12:33:49;2.67;;;1.00;;
70455;SDS011;57916;51.996;5.180;2022-09-01T12:38:45;1.45;;;1.00;;
70455;SDS011;57916;51.996;5.180;2022-09-01T12:44:29;1.70;;;0.90;;
70455;SDS011;57916;51.996;5.180;2022-09-01T12:47:04;1.90;;;1.10;;
70455;SDS011;57916;51.996;5.180;2022-09-01T12:49:58;3.60;;;1.00;;
70455;SDS011;57916;51.996;5.180;2022-09-01T12:52:29;4.57;;;1.08;;
70455;SDS011;57916;51.996;5.180;2022-09-01T12:57:26;1.00;;;0.90;;
70455;SDS011;57916;51.996;5.180;2022-09-01T13:03:11;5.05;;;1.00;;
70455;SDS011;57916;51.996;5.180;2022-09-01T13:05:44;3.00;;;1.00;;
70455;SDS011;57916;51.996;5.180;2022-09-01T13:08:21;0.98;;;0.98;;
70455;SDS011;57916;51.996;5.180;2022-09-01T13:10:55;1.60;;;1.10;;
70455;SDS011;57916;51.996;5.180;2022-09-01T13:13:27;3.33;;;1.10;;
70455;SDS011;57916;51.996;5.180;2022-09-01T13:15:55;1.80;;;0.90;;
70455;SDS011;57916;51.996;5.180;2022-09-01T13:18:30;1.00;;;1.00;;
70455;SDS011;57916;51.996;5.180;2022-09-01T13:20:57;1.98;;;1.00;;
70455;SDS011;57916;51.996;5.180;2022-09-01T13:23:24;1.63;;;1.00;;
70455;SDS011;57916;51.996;5.180;2022-09-01T13:25:51;12.55;;;1.92;;
70455;SDS011;57916;51.996;5.180;2022-09-01T13:28:19;4.95;;;1.20;;
70455;SDS011;57916;51.996;5.180;2022-09-01T13:30:58;3.35;;;1.10;;
70455;SDS011;57916;51.996;5.180;2022-09-01T13:33:50;2.13;;;1.00;;
70455;SDS011;57916;51.996;5.180;2022-09-01T13:36:37;1.48;;;1.38;;
70455;SDS011;57916;51.996;5.180;2022-09-01T13:39:11;4.43;;;1.05;;
70455;SDS011;57916;51.996;5.180;2022-09-01T13:41:38;3.28;;;1.10;;
70455;SDS011;57916;51.996;5.180;2022-09-01T13:44:05;4.80;;;1.07;;
70455;SDS011;57916;51.996;5.180;2022-09-01T13:46:32;2.15;;;1.10;;
70455;SDS011;57916;51.996;5.180;2022-09-01T13:48:59;2.28;;;1.17;;
70455;SDS011;57916;51.996;5.180;2022-09-01T13:51:49;4.00;;;1.10;;
70455;SDS011;57916;51.996;5.180;2022-09-01T13:54:17;5.40;;;1.00;;
70455;SDS011;57916;51.996;5.180;2022-09-01T13:56:44;4.88;;;1.25;;
70455;SDS011;57916;51.996;5.180;2022-09-01T13:59:12;1.50;;;0.98;;
70455;SDS011;57916;51.996;5.180;2022-09-01T14:01:39;1.50;;;1.00;;
70455;SDS011;57916;51.996;5.180;2022-09-01T14:04:09;2.80;;;0.90;;
70455;SDS011;57916;51.996;5.180;2022-09-01T14:06:39;5.00;;;1.20;;
70455;SDS011;57916;51.996;5.180;2022-09-01T14:09:10;1.10;;;1.00;;
70455;SDS011;57916;51.996;5.180;2022-09-01T14:11:42;3.70;;;1.05;;
70455;SDS011;57916;51.996;5.180;2022-09-01T14:14:09;4.85;;;1.08;;
70455;SDS011;57916;51.996;5.180;2022-09-01T14:16:37;1.27;;;1.13;;
70455;SDS011;57916;51.996;5.180;2022-09-01T14:19:04;3.40;;;1.40;;
70455;SDS011;57916;51.996;5.180;2022-09-01T14:21:31;0.90;;;0.90;;
70455;SDS011;57916;51.996;5.180;2022-09-01T14:23:58;2.10;;;1.00;;
70455;SDS011;57916;51.996;5.180;2022-09-01T14:26:26;7.60;;;1.30;;
70455;SDS011;57916;51.996;5.180;2022-09-01T14:28:53;1.98;;;1.05;;
70455;SDS011;57916;51.996;5.180;2022-09-01T14:31:21;0.90;;;0.90;;
70455;SDS011;57916;51.996;5.180;2022-09-01T14:33:48;4.53;;;0.90;;
70455;SDS011;57916;51.996;5.180;2022-09-01T14:36:21;1.10;;;1.00;;
70455;SDS011;57916;51.996;5.180;2022-09-01T14:38:50;1.67;;;1.17;;
70455;SDS011;57916;51.996;5.180;2022-09-01T14:41:21;5.20;;;1.10;;
70455;SDS011;57916;51.996;5.180;2022-09-01T14:43:53;1.15;;;1.00;;
70455;SDS011;57916;51.996;5.180;2022-09-01T14:46:28;3.20;;;0.90;;
70455;SDS011;57916;51.996;5.180;2022-09-01T14:48:57;1.88;;;1.10;;
70455;SDS011;57916;51.996;5.180;2022-09-01T14:51:25;1.40;;;1.00;;
70455;SDS011;57916;51.996;5.180;2022-09-01T14:54:14;2.53;;;1.02;;
70455;SDS011;57916;51.996;5.180;2022-09-01T14:56:41;1.30;;;1.05;;
70455;SDS011;57916;51.996;5.180;2022-09-01T14:59:28;5.50;;;1.00;;
70455;SDS011;57916;51.996;5.180;2022-09-01T15:01:55;6.80;;;1.33;;
70455;SDS011;57916;51.996;5.180;2022-09-01T15:04:22;7.50;;;1.17;;
70455;SDS011;57916;51.996;5.180;2022-09-01T15:06:49;2.40;;;1.10;;
70455;SDS011;57916;51.996;5.180;2022-09-01T15:09:16;4.78;;;1.02;;
70455;SDS011;57916;51.996;5.180;2022-09-01T15:11:44;0.90;;;0.90;;
70455;SDS011;57916;51.996;5.180;2022-09-01T15:14:11;4.80;;;1.15;;
70455;SDS011;57916;51.996;5.180;2022-09-01T15:16:39;1.15;;;1.08;;
70455;SDS011;57916;51.996;5.180;2022-09-01T15:19:07;2.90;;;1.00;;
70455;SDS011;57916;51.996;5.180;2022-09-01T15:21:40;5.70;;;1.13;;
70455;SDS011;57916;51.996;5.180;2022-09-01T15:24:08;3.00;;;1.20;;
70455;SDS011;57916;51.996;5.180;2022-09-01T15:26:37;1.88;;;0.90;;
70455;SDS011;57916;51.996;5.180;2022-09-01T15:29:06;3.33;;;1.00;;
70455;SDS011;57916;51.996;5.180;2022-09-01T15:31:37;1.00;;;1.00;;
70455;SDS011;57916;51.996;5.180;2022-09-01T15:34:05;2.77;;;1.03;;
70455;SDS011;57916;51.996;5.180;2022-09-01T15:36:33;1.17;;;1.00;;
70455;SDS011;57916;51.996;5.180;2022-09-01T15:39:02;2.70;;;1.10;;
70455;SDS011;57916;51.996;5.180;2022-09-01T15:41:30;4.95;;;1.00;;
70455;SDS011;57916;51.996;5.180;2022-09-01T15:43:58;1.80;;;0.93;;
70455;SDS011;57916;51.996;5.180;2022-09-01T15:46:27;1.05;;;1.00;;
70455;SDS011;57916;51.996;5.180;2022-09-01T15:49:02;4.90;;;1.00;;
70455;SDS011;57916;51.996;5.180;2022-09-01T15:51:33;2.17;;;1.00;;
70455;SDS011;57916;51.996;5.180;2022-09-01T15:54:15;2.92;;;0.90;;
70455;SDS011;57916;51.996;5.180;2022-09-01T15:56:45;8.75;;;1.00;;
70455;SDS011;57916;51.996;5.180;2022-09-01T15:59:13;1.87;;;1.00;;
70455;SDS011;57916;51.996;5.180;2022-09-01T16:01:42;4.30;;;1.20;;
70455;SDS011;57916;51.996;5.180;2022-09-01T16:04:11;1.90;;;1.00;;
70455;SDS011;57916;51.996;5.180;2022-09-01T16:06:46;2.30;;;1.00;;
70455;SDS011;57916;51.996;5.180;2022-09-01T16:09:15;1.20;;;1.05;;
70455;SDS011;57916;51.996;5.180;2022-09-01T16:11:46;1.25;;;1.15;;
70455;SDS011;57916;51.996;5.180;2022-09-01T16:14:14;3.85;;;1.05;;
70455;SDS011;57916;51.996;5.180;2022-09-01T16:19:40;4.10;;;1.07;;
70455;SDS011;57916;51.996;5.180;2022-09-01T16:25:06;1.00;;;1.00;;
70455;SDS011;57916;51.996;5.180;2022-09-01T16:27:48;7.55;;;1.15;;
70455;SDS011;57916;51.996;5.180;2022-09-01T16:30:20;4.40;;;1.10;;
70455;SDS011;57916;51.996;5.180;2022-09-01T16:32:53;1.40;;;0.95;;
70455;SDS011;57916;51.996;5.180;2022-09-01T16:35:27;1.73;;;1.02;;
70455;SDS011;57916;51.996;5.180;2022-09-01T16:38:25;2.70;;;1.15;;
70455;SDS011;57916;51.996;5.180;2022-09-01T16:46:32;2.50;;;1.00;;
70455;SDS011;57916;51.996;5.180;2022-09-01T16:49:13;2.63;;;1.00;;